createdAt,value
2022-08-21T00:00:42.385Z,6.07
2022-08-21T00:05:52.220Z,8.43
2022-08-21T00:10:53.805Z,8.52
2022-08-21T00:15:55.379Z,7.60
2022-08-21T00:20:57.088Z,8.77
2022-08-21T00:25:58.735Z,13.05
2022-08-21T00:31:01.089Z,10.90
2022-08-21T00:36:03.422Z,8.77
2022-08-21T00:41:36.806Z,8.52
2022-08-21T00:46:31.118Z,9.52
2022-08-21T00:51:51.577Z,8.50
2022-08-21T00:56:59.707Z,9.38
2022-08-21T01:02:02.882Z,11.18
2022-08-21T01:07:04.802Z,12.80
2022-08-21T01:12:06.716Z,9.43
2022-08-21T01:17:10.076Z,9.73
2022-08-21T01:22:11.898Z,10.82
2022-08-21T01:27:13.465Z,8.60
2022-08-21T01:32:18.648Z,12.50
2022-08-21T01:37:22.361Z,7.72
2022-08-21T01:42:24.160Z,11.85
2022-08-21T01:47:25.883Z,11.65
2022-08-21T01:52:27.556Z,11.07
2022-08-21T01:57:29.437Z,9.63
2022-08-21T02:02:30.954Z,8.88
2022-08-21T02:07:42.806Z,7.88
2022-08-21T02:12:44.386Z,10.15
2022-08-21T02:17:50.839Z,7.88
2022-08-21T02:22:52.644Z,10.63
2022-08-21T02:27:55.410Z,10.65
2022-08-21T02:32:59.285Z,11.48
2022-08-21T02:38:05.079Z,12.82
2022-08-21T02:43:08.128Z,13.85
2022-08-21T02:48:13.357Z,10.57
2022-08-21T02:53:17.527Z,12.30
2022-08-21T02:58:23.366Z,12.45
2022-08-21T03:03:26.290Z,14.50
2022-08-21T03:08:28.027Z,10.70
2022-08-21T03:13:29.901Z,13.90
2022-08-21T03:18:31.747Z,13.65
2022-08-21T03:23:33.403Z,10.57
2022-08-21T03:28:35.869Z,14.05
2022-08-21T03:33:37.535Z,12.15
2022-08-21T03:38:39.907Z,13.95
2022-08-21T03:43:41.606Z,13.20
2022-08-21T03:48:43.514Z,13.77
2022-08-21T03:53:45.951Z,14.68
2022-08-21T03:58:47.748Z,12.60
2022-08-21T04:03:49.315Z,12.95
2022-08-21T04:08:50.891Z,11.10
2022-08-21T04:13:52.423Z,14.85
2022-08-21T04:18:54.067Z,11.93
2022-08-21T04:23:56.652Z,11.68
2022-08-21T04:28:58.921Z,13.45
2022-08-21T04:34:00.426Z,10.43
2022-08-21T04:39:03.579Z,15.45
2022-08-21T04:44:05.483Z,13.70
2022-08-21T04:49:07.018Z,18.75
2022-08-21T04:54:23.827Z,13.10
2022-08-21T04:59:31.496Z,11.27
2022-08-21T05:04:35.380Z,14.40
2022-08-21T05:09:39.426Z,16.08
2022-08-21T05:14:40.966Z,14.88
2022-08-21T05:19:42.504Z,15.90
2022-08-21T05:24:44.035Z,14.48
2022-08-21T05:29:45.528Z,12.18
2022-08-21T05:34:47.648Z,15.65
2022-08-21T05:40:20.304Z,18.90
2022-08-21T05:45:10.829Z,14.48
2022-08-21T05:50:12.413Z,14.80
2022-08-21T05:55:14.249Z,20.98
2022-08-21T06:00:17.554Z,18.50
2022-08-21T06:05:33.405Z,13.13
2022-08-21T06:10:39.465Z,16.42
2022-08-21T06:15:41.292Z,13.68
2022-08-21T06:20:43.512Z,13.57
2022-08-21T06:25:45.020Z,12.82
2022-08-21T06:30:46.531Z,12.35
2022-08-21T06:35:48.120Z,16.33
2022-08-21T06:40:49.636Z,14.63
2022-08-21T06:45:51.339Z,13.90
2022-08-21T06:50:52.980Z,13.65
2022-08-21T06:55:54.572Z,12.30
2022-08-21T07:01:00.609Z,16.33
2022-08-21T07:06:03.391Z,15.75
2022-08-21T07:11:11.426Z,20.25
2022-08-21T07:16:13.037Z,21.17
2022-08-21T07:21:17.773Z,17.00
2022-08-21T07:26:22.321Z,19.42
2022-08-21T07:31:25.551Z,21.63
2022-08-21T07:36:27.125Z,20.50
2022-08-21T07:41:30.260Z,14.57
2022-08-21T07:46:31.794Z,12.70
2022-08-21T07:51:34.553Z,18.08
2022-08-21T07:56:36.039Z,16.25
2022-08-21T08:01:37.572Z,20.30
2022-08-21T08:06:39.124Z,20.05
2022-08-21T08:11:44.643Z,19.65
2022-08-21T08:16:46.237Z,17.85
2022-08-21T08:21:47.780Z,18.63
2022-08-21T08:26:53.590Z,20.02
2022-08-21T08:31:55.945Z,22.20
2022-08-21T08:36:59.582Z,18.85
2022-08-21T08:42:33.011Z,14.70
2022-08-21T08:47:32.096Z,17.77
2022-08-21T08:52:44.071Z,15.38
2022-08-21T08:57:49.363Z,16.30
2022-08-21T09:02:59.602Z,12.73
2022-08-21T09:08:40.531Z,15.95
2022-08-21T09:14:17.863Z,15.32
2022-08-21T09:19:40.510Z,14.45
2022-08-21T09:25:01.889Z,11.55
2022-08-21T09:30:06.379Z,9.63
2022-08-21T09:35:08.569Z,19.48
2022-08-21T09:40:31.633Z,15.30
2022-08-21T09:45:35.334Z,9.23
2022-08-21T09:50:37.116Z,13.85
2022-08-21T09:56:06.076Z,13.20
2022-08-21T10:01:17.736Z,14.95
2022-08-21T10:06:28.076Z,12.20
2022-08-21T10:11:30.586Z,15.85
2022-08-21T10:16:54.343Z,12.25
2022-08-21T10:22:20.444Z,10.63
2022-08-21T10:27:28.782Z,11.27
2022-08-21T10:32:43.300Z,11.45
2022-08-21T10:38:09.593Z,15.50
2022-08-21T10:43:32.040Z,9.07
2022-08-21T10:48:36.135Z,8.18
2022-08-21T10:54:06.228Z,6.88
2022-08-21T10:59:19.591Z,13.20
2022-08-21T11:04:39.788Z,7.75
2022-08-21T11:09:55.117Z,7.07
2022-08-21T11:15:29.708Z,9.38
2022-08-21T11:20:39.739Z,8.13
2022-08-21T11:25:47.562Z,10.20
2022-08-21T11:31:10.428Z,5.88
2022-08-21T11:36:35.078Z,12.38
2022-08-21T11:42:27.661Z,7.18
2022-08-21T11:47:41.458Z,10.80
2022-08-21T11:52:52.989Z,13.27
2022-08-21T11:58:05.414Z,7.50
2022-08-21T12:03:12.396Z,8.23
2022-08-21T12:08:27.421Z,6.40
2022-08-21T12:13:40.461Z,6.65
2022-08-21T12:18:44.613Z,9.90
2022-08-21T12:23:50.650Z,6.70
2022-08-21T12:29:03.344Z,8.00
2022-08-21T12:34:11.431Z,8.25
2022-08-21T12:39:18.876Z,13.82
2022-08-21T12:44:35.635Z,10.13
2022-08-21T12:55:05.566Z,12.55
2022-08-21T13:00:15.263Z,8.10
2022-08-21T13:05:27.992Z,8.82
2022-08-21T13:10:32.713Z,9.27
2022-08-21T13:15:37.105Z,8.00
2022-08-21T13:20:42.166Z,9.23
2022-08-21T13:25:43.739Z,8.20
2022-08-21T13:30:48.967Z,8.00
2022-08-21T13:35:52.957Z,5.80
2022-08-21T13:41:00.482Z,7.30
2022-08-21T13:46:03.323Z,8.27
2022-08-21T13:51:05.465Z,7.78
2022-08-21T13:56:07.377Z,6.30
2022-08-21T14:01:28.640Z,11.10
2022-08-21T14:06:35.625Z,6.28
2022-08-21T14:11:39.498Z,6.85
2022-08-21T14:16:47.536Z,4.88
2022-08-21T14:21:49.412Z,5.93
2022-08-21T14:26:54.874Z,7.82
2022-08-21T14:31:59.307Z,10.25
2022-08-21T14:37:01.191Z,8.40
2022-08-21T14:42:03.260Z,8.68
2022-08-21T14:47:05.007Z,7.03
2022-08-21T14:52:06.674Z,6.07
2022-08-21T14:57:10.548Z,6.38
2022-08-21T15:02:12.312Z,10.18
2022-08-21T15:07:13.908Z,10.95
2022-08-21T15:12:16.106Z,8.65
2022-08-21T15:17:18.200Z,7.00
2022-08-21T15:22:28.052Z,8.35
2022-08-21T15:27:30.565Z,7.30
2022-08-21T15:32:32.933Z,8.38
2022-08-21T15:37:34.710Z,11.57
2022-08-21T15:42:38.614Z,9.32
2022-08-21T15:47:44.878Z,10.60
2022-08-21T15:52:46.603Z,9.98
2022-08-21T15:57:57.284Z,10.38
2022-08-21T16:03:01.053Z,8.27
2022-08-21T16:08:02.918Z,6.80
2022-08-21T16:13:12.100Z,14.75
2022-08-21T16:18:14.081Z,7.88
2022-08-21T16:23:15.704Z,10.60
2022-08-21T16:28:20.910Z,5.53
2022-08-21T16:33:33.971Z,7.75
2022-08-21T16:38:38.196Z,10.02
2022-08-21T16:43:42.767Z,9.98
2022-08-21T16:48:45.277Z,13.23
2022-08-21T16:53:46.902Z,7.88
2022-08-21T16:58:50.952Z,7.88
2022-08-21T17:03:53.385Z,9.18
2022-08-21T17:08:54.909Z,11.52
2022-08-21T17:13:58.454Z,9.23
2022-08-21T17:19:00.198Z,9.85
2022-08-21T17:24:01.790Z,8.32
2022-08-21T17:29:09.691Z,9.77
2022-08-21T17:34:12.490Z,7.65
2022-08-21T17:39:22.536Z,8.13
2022-08-21T17:44:28.337Z,7.15
2022-08-21T17:49:29.842Z,10.75
2022-08-21T17:54:31.391Z,7.93
2022-08-21T17:59:33.792Z,8.95
2022-08-21T18:04:36.304Z,7.53
2022-08-21T18:09:38.263Z,10.98
2022-08-21T18:14:40.895Z,7.57
2022-08-21T18:19:48.863Z,9.52
2022-08-21T18:24:51.686Z,8.35
2022-08-21T18:29:56.842Z,9.55
2022-08-21T18:35:03.062Z,10.95
2022-08-21T18:40:08.501Z,8.67
2022-08-21T18:45:13.573Z,7.88
2022-08-21T18:50:24.979Z,11.88
2022-08-21T18:55:28.324Z,8.32
2022-08-21T19:00:34.143Z,6.40
2022-08-21T19:05:36.481Z,7.85
2022-08-21T19:10:42.767Z,8.43
2022-08-21T19:15:52.671Z,9.80
2022-08-21T19:26:00.823Z,7.28
2022-08-21T19:31:25.928Z,8.43
2022-08-21T19:36:27.566Z,5.95
2022-08-21T19:41:32.878Z,7.38
2022-08-21T19:46:37.874Z,12.77
2022-08-21T19:51:40.247Z,8.77
2022-08-21T19:56:42.477Z,7.03
2022-08-21T20:01:44.375Z,8.52
2022-08-21T20:06:47.092Z,6.45
2022-08-21T20:11:55.405Z,7.78
2022-08-21T20:17:02.444Z,9.32
2022-08-21T20:22:05.673Z,8.18
2022-08-21T20:27:08.226Z,7.22
2022-08-21T20:32:12.022Z,10.27
2022-08-21T20:42:54.641Z,9.35
2022-08-21T20:48:04.875Z,12.73
2022-08-21T20:53:20.545Z,10.73
2022-08-21T20:58:37.379Z,14.68
2022-08-21T21:03:46.800Z,9.80
2022-08-21T21:09:06.474Z,8.52
2022-08-21T21:14:14.510Z,9.90
2022-08-21T21:19:37.187Z,8.95
2022-08-21T21:25:11.383Z,8.30
2022-08-21T21:30:20.923Z,8.48
2022-08-21T21:35:32.559Z,9.65
2022-08-21T21:41:16.310Z,6.75
2022-08-21T21:46:33.087Z,26.02
2022-08-21T21:51:46.699Z,18.10
2022-08-21T21:57:09.146Z,12.93
2022-08-21T22:02:54.993Z,11.82
2022-08-21T22:08:02.850Z,8.90
2022-08-21T22:13:26.295Z,9.55
2022-08-21T22:18:37.448Z,10.98
2022-08-21T22:23:50.852Z,7.88
2022-08-21T22:28:53.466Z,9.10
2022-08-21T22:34:18.415Z,15.35
2022-08-21T22:39:38.986Z,9.35
2022-08-21T22:44:56.298Z,14.10
2022-08-21T22:50:04.330Z,17.53
2022-08-21T22:55:43.762Z,4.45
2022-08-21T23:00:54.565Z,9.90
2022-08-21T23:05:56.128Z,16.15
2022-08-21T23:11:12.621Z,11.13
2022-08-21T23:16:33.055Z,11.02
2022-08-21T23:21:52.785Z,10.63
2022-08-21T23:27:09.528Z,9.10
2022-08-21T23:32:10.945Z,13.20
2022-08-21T23:43:02.107Z,10.07
2022-08-21T23:48:37.475Z,12.13
2022-08-21T23:53:53.004Z,13.57
2022-08-21T23:59:13.080Z,12.95
